sensor_id;sensor_type;location;lat;lon;timestamp;P1;durP1;ratioP1;P2;durP2;ratioP2
9270;SDS011;4673;53.458;9.940;2022-11-21T00:00:15;18.43;;;18.33;;
9270;SDS011;4673;53.458;9.940;2022-11-21T00:02:41;18.70;;;18.60;;
9270;SDS011;4673;53.458;9.940;2022-11-21T00:05:07;18.23;;;18.13;;
9270;SDS011;4673;53.458;9.940;2022-11-21T00:07:33;18.87;;;18.77;;
9270;SDS011;4673;53.458;9.940;2022-11-21T00:09:58;18.90;;;18.80;;
9270;SDS011;4673;53.458;9.940;2022-11-21T00:12:24;19.97;;;19.87;;
9270;SDS011;4673;53.458;9.940;2022-11-21T00:14:50;20.47;;;20.37;;
9270;SDS011;4673;53.458;9.940;2022-11-21T00:17:15;20.37;;;20.27;;
9270;SDS011;4673;53.458;9.940;2022-11-21T00:19:41;19.43;;;19.33;;
9270;SDS011;4673;53.458;9.940;2022-11-21T00:22:07;18.20;;;18.10;;
9270;SDS011;4673;53.458;9.940;2022-11-21T00:24:32;17.60;;;17.50;;
9270;SDS011;4673;53.458;9.940;2022-11-21T00:26:58;17.90;;;17.80;;
9270;SDS011;4673;53.458;9.940;2022-11-21T00:29:24;19.83;;;19.73;;
9270;SDS011;4673;53.458;9.940;2022-11-21T00:31:49;17.73;;;17.63;;
9270;SDS011;4673;53.458;9.940;2022-11-21T00:34:15;18.77;;;18.67;;
9270;SDS011;4673;53.458;9.940;2022-11-21T00:36:41;18.43;;;18.33;;
9270;SDS011;4673;53.458;9.940;2022-11-21T00:39:06;18.43;;;18.33;;
9270;SDS011;4673;53.458;9.940;2022-11-21T00:41:32;20.10;;;19.90;;
9270;SDS011;4673;53.458;9.940;2022-11-21T00:43:58;21.00;;;20.80;;
9270;SDS011;4673;53.458;9.940;2022-11-21T00:46:23;19.93;;;19.80;;
9270;SDS011;4673;53.458;9.940;2022-11-21T00:48:49;20.37;;;20.27;;
9270;SDS011;4673;53.458;9.940;2022-11-21T00:51:14;22.40;;;22.20;;
9270;SDS011;4673;53.458;9.940;2022-11-21T00:53:40;20.87;;;20.67;;
9270;SDS011;4673;53.458;9.940;2022-11-21T00:56:06;20.17;;;20.07;;
9270;SDS011;4673;53.458;9.940;2022-11-21T00:58:32;21.07;;;20.87;;
9270;SDS011;4673;53.458;9.940;2022-11-21T01:01:04;20.27;;;20.07;;
9270;SDS011;4673;53.458;9.940;2022-11-21T01:03:33;21.20;;;21.00;;
9270;SDS011;4673;53.458;9.940;2022-11-21T01:06:00;20.63;;;20.43;;
9270;SDS011;4673;53.458;9.940;2022-11-21T01:08:30;18.00;;;17.90;;
9270;SDS011;4673;53.458;9.940;2022-11-21T01:10:55;19.67;;;19.57;;
9270;SDS011;4673;53.458;9.940;2022-11-21T01:13:25;19.10;;;19.00;;
9270;SDS011;4673;53.458;9.940;2022-11-21T01:15:51;19.97;;;19.77;;
9270;SDS011;4673;53.458;9.940;2022-11-21T01:18:17;18.10;;;18.00;;
9270;SDS011;4673;53.458;9.940;2022-11-21T01:20:42;18.37;;;18.27;;
9270;SDS011;4673;53.458;9.940;2022-11-21T01:23:08;17.17;;;17.07;;
9270;SDS011;4673;53.458;9.940;2022-11-21T01:25:34;17.00;;;16.90;;
9270;SDS011;4673;53.458;9.940;2022-11-21T01:28:00;17.13;;;17.03;;
9270;SDS011;4673;53.458;9.940;2022-11-21T01:30:25;17.03;;;16.93;;
9270;SDS011;4673;53.458;9.940;2022-11-21T01:32:51;17.67;;;17.57;;
9270;SDS011;4673;53.458;9.940;2022-11-21T01:35:17;16.37;;;16.27;;
9270;SDS011;4673;53.458;9.940;2022-11-21T01:37:46;16.33;;;16.23;;
9270;SDS011;4673;53.458;9.940;2022-11-21T01:40:12;16.17;;;16.07;;
9270;SDS011;4673;53.458;9.940;2022-11-21T01:42:52;16.03;;;15.93;;
9270;SDS011;4673;53.458;9.940;2022-11-21T01:48:16;16.37;;;16.27;;
9270;SDS011;4673;53.458;9.940;2022-11-21T01:50:42;17.40;;;17.30;;
9270;SDS011;4673;53.458;9.940;2022-11-21T01:53:09;16.70;;;16.60;;
9270;SDS011;4673;53.458;9.940;2022-11-21T01:55:35;18.40;;;18.30;;
9270;SDS011;4673;53.458;9.940;2022-11-21T01:58:01;16.43;;;16.33;;
9270;SDS011;4673;53.458;9.940;2022-11-21T02:00:27;19.10;;;19.00;;
9270;SDS011;4673;53.458;9.940;2022-11-21T02:03:00;17.07;;;16.97;;
9270;SDS011;4673;53.458;9.940;2022-11-21T02:05:31;18.57;;;18.47;;
9270;SDS011;4673;53.458;9.940;2022-11-21T02:08:07;18.27;;;18.17;;
9270;SDS011;4673;53.458;9.940;2022-11-21T02:13:51;16.23;;;16.13;;
9270;SDS011;4673;53.458;9.940;2022-11-21T02:16:17;17.57;;;17.47;;
9270;SDS011;4673;53.458;9.940;2022-11-21T02:18:42;16.17;;;16.07;;
9270;SDS011;4673;53.458;9.940;2022-11-21T02:21:30;18.73;;;18.63;;
9270;SDS011;4673;53.458;9.940;2022-11-21T02:24:16;18.73;;;18.53;;
9270;SDS011;4673;53.458;9.940;2022-11-21T02:26:49;19.53;;;19.43;;
9270;SDS011;4673;53.458;9.940;2022-11-21T02:29:18;19.73;;;19.60;;
9270;SDS011;4673;53.458;9.940;2022-11-21T02:31:43;19.33;;;19.13;;
9270;SDS011;4673;53.458;9.940;2022-11-21T02:34:09;20.93;;;20.73;;
9270;SDS011;4673;53.458;9.940;2022-11-21T02:36:45;19.33;;;19.23;;
9270;SDS011;4673;53.458;9.940;2022-11-21T02:39:32;19.70;;;19.60;;
9270;SDS011;4673;53.458;9.940;2022-11-21T02:42:11;21.53;;;21.33;;
9270;SDS011;4673;53.458;9.940;2022-11-21T02:44:51;18.07;;;17.97;;
9270;SDS011;4673;53.458;9.940;2022-11-21T02:47:36;19.30;;;19.10;;
9270;SDS011;4673;53.458;9.940;2022-11-21T02:52:40;18.73;;;18.63;;
9270;SDS011;4673;53.458;9.940;2022-11-21T02:55:06;20.30;;;20.13;;
9270;SDS011;4673;53.458;9.940;2022-11-21T02:57:32;21.33;;;21.13;;
9270;SDS011;4673;53.458;9.940;2022-11-21T02:59:58;22.10;;;21.90;;
9270;SDS011;4673;53.458;9.940;2022-11-21T03:02:24;17.57;;;17.47;;
9270;SDS011;4673;53.458;9.940;2022-11-21T03:04:49;20.00;;;19.80;;
9270;SDS011;4673;53.458;9.940;2022-11-21T03:07:15;20.60;;;20.40;;
9270;SDS011;4673;53.458;9.940;2022-11-21T03:09:41;19.17;;;19.07;;
9270;SDS011;4673;53.458;9.940;2022-11-21T03:12:07;19.20;;;19.10;;
9270;SDS011;4673;53.458;9.940;2022-11-21T03:14:34;19.27;;;19.17;;
9270;SDS011;4673;53.458;9.940;2022-11-21T03:17:00;17.37;;;17.27;;
9270;SDS011;4673;53.458;9.940;2022-11-21T03:19:27;17.00;;;16.90;;
9270;SDS011;4673;53.458;9.940;2022-11-21T03:21:52;18.40;;;18.30;;
9270;SDS011;4673;53.458;9.940;2022-11-21T03:24:18;15.73;;;15.63;;
9270;SDS011;4673;53.458;9.940;2022-11-21T03:26:44;15.60;;;15.50;;
9270;SDS011;4673;53.458;9.940;2022-11-21T03:29:09;14.33;;;14.23;;
9270;SDS011;4673;53.458;9.940;2022-11-21T03:31:35;14.50;;;14.40;;
9270;SDS011;4673;53.458;9.940;2022-11-21T03:34:00;14.87;;;14.77;;
9270;SDS011;4673;53.458;9.940;2022-11-21T03:36:26;16.27;;;16.17;;
9270;SDS011;4673;53.458;9.940;2022-11-21T03:38:54;13.53;;;13.43;;
9270;SDS011;4673;53.458;9.940;2022-11-21T03:41:23;12.80;;;12.70;;
9270;SDS011;4673;53.458;9.940;2022-11-21T03:43:57;13.97;;;13.87;;
9270;SDS011;4673;53.458;9.940;2022-11-21T03:46:34;13.33;;;13.23;;
9270;SDS011;4673;53.458;9.940;2022-11-21T03:49:02;11.90;;;11.87;;
9270;SDS011;4673;53.458;9.940;2022-11-21T03:51:28;12.40;;;12.40;;
9270;SDS011;4673;53.458;9.940;2022-11-21T03:53:54;12.37;;;12.37;;
9270;SDS011;4673;53.458;9.940;2022-11-21T03:56:19;12.10;;;12.07;;
9270;SDS011;4673;53.458;9.940;2022-11-21T03:58:45;12.20;;;12.20;;
9270;SDS011;4673;53.458;9.940;2022-11-21T04:01:11;13.40;;;13.30;;
9270;SDS011;4673;53.458;9.940;2022-11-21T04:03:38;12.20;;;12.10;;
9270;SDS011;4673;53.458;9.940;2022-11-21T04:06:04;11.60;;;11.60;;
9270;SDS011;4673;53.458;9.940;2022-11-21T04:08:30;11.77;;;11.77;;
9270;SDS011;4673;53.458;9.940;2022-11-21T04:10:56;11.60;;;11.60;;
9270;SDS011;4673;53.458;9.940;2022-11-21T04:13:22;11.73;;;11.63;;
9270;SDS011;4673;53.458;9.940;2022-11-21T04:15:48;11.70;;;11.70;;
9270;SDS011;4673;53.458;9.940;2022-11-21T04:18:13;12.20;;;12.20;;
9270;SDS011;4673;53.458;9.940;2022-11-21T04:20:39;11.60;;;11.60;;
9270;SDS011;4673;53.458;9.940;2022-11-21T04:26:11;11.23;;;11.23;;
9270;SDS011;4673;53.458;9.940;2022-11-21T04:28:37;10.47;;;10.47;;
9270;SDS011;4673;53.458;9.940;2022-11-21T04:31:03;10.83;;;10.83;;
9270;SDS011;4673;53.458;9.940;2022-11-21T04:33:30;11.23;;;11.23;;
9270;SDS011;4673;53.458;9.940;2022-11-21T04:35:55;10.90;;;10.90;;
9270;SDS011;4673;53.458;9.940;2022-11-21T04:38:21;11.00;;;11.00;;
9270;SDS011;4673;53.458;9.940;2022-11-21T04:40:46;10.30;;;10.30;;
9270;SDS011;4673;53.458;9.940;2022-11-21T04:43:12;10.90;;;10.90;;
9270;SDS011;4673;53.458;9.940;2022-11-21T04:45:38;11.63;;;11.63;;
9270;SDS011;4673;53.458;9.940;2022-11-21T04:48:03;11.00;;;11.00;;
9270;SDS011;4673;53.458;9.940;2022-11-21T04:50:29;10.50;;;10.50;;
9270;SDS011;4673;53.458;9.940;2022-11-21T04:52:55;11.03;;;11.03;;
9270;SDS011;4673;53.458;9.940;2022-11-21T04:55:22;9.57;;;9.57;;
9270;SDS011;4673;53.458;9.940;2022-11-21T04:57:50;9.77;;;9.77;;
9270;SDS011;4673;53.458;9.940;2022-11-21T05:00:16;11.73;;;11.73;;
9270;SDS011;4673;53.458;9.940;2022-11-21T05:02:42;10.23;;;10.23;;
9270;SDS011;4673;53.458;9.940;2022-11-21T05:05:08;11.60;;;11.60;;
9270;SDS011;4673;53.458;9.940;2022-11-21T05:07:35;11.43;;;11.43;;
9270;SDS011;4673;53.458;9.940;2022-11-21T05:10:01;10.53;;;10.53;;
9270;SDS011;4673;53.458;9.940;2022-11-21T05:12:26;11.03;;;11.03;;
9270;SDS011;4673;53.458;9.940;2022-11-21T05:15:10;10.40;;;10.40;;
9270;SDS011;4673;53.458;9.940;2022-11-21T05:17:36;10.97;;;10.97;;
9270;SDS011;4673;53.458;9.940;2022-11-21T05:20:02;10.00;;;10.00;;
9270;SDS011;4673;53.458;9.940;2022-11-21T05:22:28;11.00;;;11.00;;
9270;SDS011;4673;53.458;9.940;2022-11-21T05:24:54;10.37;;;10.37;;
9270;SDS011;4673;53.458;9.940;2022-11-21T05:27:19;9.50;;;9.50;;
9270;SDS011;4673;53.458;9.940;2022-11-21T05:29:45;10.57;;;10.57;;
9270;SDS011;4673;53.458;9.940;2022-11-21T05:32:11;10.03;;;10.03;;
9270;SDS011;4673;53.458;9.940;2022-11-21T05:34:36;11.10;;;11.10;;
9270;SDS011;4673;53.458;9.940;2022-11-21T05:37:02;10.13;;;10.13;;
9270;SDS011;4673;53.458;9.940;2022-11-21T05:39:28;10.90;;;10.90;;
9270;SDS011;4673;53.458;9.940;2022-11-21T05:41:54;10.63;;;10.63;;
9270;SDS011;4673;53.458;9.940;2022-11-21T05:44:20;9.53;;;9.53;;
9270;SDS011;4673;53.458;9.940;2022-11-21T05:46:45;10.90;;;10.90;;
9270;SDS011;4673;53.458;9.940;2022-11-21T05:49:11;9.63;;;9.63;;
9270;SDS011;4673;53.458;9.940;2022-11-21T05:51:37;9.43;;;9.43;;
9270;SDS011;4673;53.458;9.940;2022-11-21T05:54:03;9.30;;;9.30;;
9270;SDS011;4673;53.458;9.940;2022-11-21T05:56:29;10.87;;;10.87;;
9270;SDS011;4673;53.458;9.940;2022-11-21T05:58:55;10.20;;;10.20;;
9270;SDS011;4673;53.458;9.940;2022-11-21T06:01:21;10.00;;;10.00;;
9270;SDS011;4673;53.458;9.940;2022-11-21T06:04:05;10.03;;;10.03;;
9270;SDS011;4673;53.458;9.940;2022-11-21T06:06:32;10.63;;;10.63;;
9270;SDS011;4673;53.458;9.940;2022-11-21T06:08:57;10.60;;;10.60;;
9270;SDS011;4673;53.458;9.940;2022-11-21T06:11:23;11.63;;;11.63;;
9270;SDS011;4673;53.458;9.940;2022-11-21T06:13:49;11.50;;;11.40;;
9270;SDS011;4673;53.458;9.940;2022-11-21T06:16:16;11.77;;;11.77;;
9270;SDS011;4673;53.458;9.940;2022-11-21T06:18:45;11.50;;;11.43;;
9270;SDS011;4673;53.458;9.940;2022-11-21T06:21:19;10.70;;;10.70;;
9270;SDS011;4673;53.458;9.940;2022-11-21T06:23:49;11.50;;;11.50;;
9270;SDS011;4673;53.458;9.940;2022-11-21T06:26:17;11.97;;;11.87;;
9270;SDS011;4673;53.458;9.940;2022-11-21T06:28:47;10.87;;;10.87;;
9270;SDS011;4673;53.458;9.940;2022-11-21T06:31:14;9.80;;;9.80;;
9270;SDS011;4673;53.458;9.940;2022-11-21T06:33:44;10.97;;;10.97;;
9270;SDS011;4673;53.458;9.940;2022-11-21T06:36:11;10.47;;;10.47;;
9270;SDS011;4673;53.458;9.940;2022-11-21T06:38:38;10.50;;;10.50;;
9270;SDS011;4673;53.458;9.940;2022-11-21T06:41:11;10.67;;;10.67;;
9270;SDS011;4673;53.458;9.940;2022-11-21T06:43:38;10.80;;;10.80;;
9270;SDS011;4673;53.458;9.940;2022-11-21T06:46:04;10.60;;;10.60;;
9270;SDS011;4673;53.458;9.940;2022-11-21T06:48:31;11.10;;;11.10;;
9270;SDS011;4673;53.458;9.940;2022-11-21T06:51:02;11.80;;;11.70;;
9270;SDS011;4673;53.458;9.940;2022-11-21T06:53:37;10.40;;;10.40;;
9270;SDS011;4673;53.458;9.940;2022-11-21T06:56:02;11.70;;;11.70;;
9270;SDS011;4673;53.458;9.940;2022-11-21T06:58:30;13.03;;;12.93;;
9270;SDS011;4673;53.458;9.940;2022-11-21T07:00:56;11.50;;;11.50;;
9270;SDS011;4673;53.458;9.940;2022-11-21T07:03:22;11.07;;;11.00;;
9270;SDS011;4673;53.458;9.940;2022-11-21T07:05:48;12.27;;;12.17;;
9270;SDS011;4673;53.458;9.940;2022-11-21T07:08:14;10.57;;;10.57;;
9270;SDS011;4673;53.458;9.940;2022-11-21T07:10:40;13.37;;;13.27;;
9270;SDS011;4673;53.458;9.940;2022-11-21T07:13:06;13.07;;;12.97;;
9270;SDS011;4673;53.458;9.940;2022-11-21T07:15:54;12.20;;;12.10;;
9270;SDS011;4673;53.458;9.940;2022-11-21T07:18:24;13.47;;;13.37;;
9270;SDS011;4673;53.458;9.940;2022-11-21T07:20:50;12.90;;;12.80;;
9270;SDS011;4673;53.458;9.940;2022-11-21T07:23:16;13.03;;;12.93;;
9270;SDS011;4673;53.458;9.940;2022-11-21T07:25:41;12.57;;;12.47;;
9270;SDS011;4673;53.458;9.940;2022-11-21T07:28:08;12.80;;;12.70;;
9270;SDS011;4673;53.458;9.940;2022-11-21T07:30:37;12.83;;;12.73;;
9270;SDS011;4673;53.458;9.940;2022-11-21T07:33:04;12.57;;;12.47;;
9270;SDS011;4673;53.458;9.940;2022-11-21T07:35:31;12.67;;;12.67;;
9270;SDS011;4673;53.458;9.940;2022-11-21T07:37:57;12.77;;;12.67;;
9270;SDS011;4673;53.458;9.940;2022-11-21T07:40:23;13.33;;;13.23;;
9270;SDS011;4673;53.458;9.940;2022-11-21T07:42:49;12.30;;;12.30;;
9270;SDS011;4673;53.458;9.940;2022-11-21T07:47:46;12.77;;;12.67;;
9270;SDS011;4673;53.458;9.940;2022-11-21T07:50:12;12.23;;;12.23;;
9270;SDS011;4673;53.458;9.940;2022-11-21T07:52:37;12.83;;;12.73;;
9270;SDS011;4673;53.458;9.940;2022-11-21T07:55:03;11.90;;;11.90;;
9270;SDS011;4673;53.458;9.940;2022-11-21T07:57:30;10.97;;;10.97;;
9270;SDS011;4673;53.458;9.940;2022-11-21T07:59:56;11.50;;;11.50;;
9270;SDS011;4673;53.458;9.940;2022-11-21T08:02:25;10.63;;;10.63;;
9270;SDS011;4673;53.458;9.940;2022-11-21T08:04:52;12.37;;;12.27;;
9270;SDS011;4673;53.458;9.940;2022-11-21T08:07:19;12.73;;;12.63;;
9270;SDS011;4673;53.458;9.940;2022-11-21T08:09:45;10.97;;;10.97;;
9270;SDS011;4673;53.458;9.940;2022-11-21T08:12:11;11.13;;;11.13;;
9270;SDS011;4673;53.458;9.940;2022-11-21T08:14:38;11.83;;;11.83;;
9270;SDS011;4673;53.458;9.940;2022-11-21T08:17:04;12.13;;;12.07;;
9270;SDS011;4673;53.458;9.940;2022-11-21T08:19:30;11.17;;;11.17;;
9270;SDS011;4673;53.458;9.940;2022-11-21T08:21:56;12.00;;;12.00;;
9270;SDS011;4673;53.458;9.940;2022-11-21T08:24:22;10.63;;;10.63;;
9270;SDS011;4673;53.458;9.940;2022-11-21T08:26:48;12.87;;;12.77;;
9270;SDS011;4673;53.458;9.940;2022-11-21T08:29:14;12.27;;;12.27;;
9270;SDS011;4673;53.458;9.940;2022-11-21T08:31:40;11.47;;;11.47;;
9270;SDS011;4673;53.458;9.940;2022-11-21T08:34:06;11.53;;;11.53;;
9270;SDS011;4673;53.458;9.940;2022-11-21T08:36:32;11.70;;;11.70;;
9270;SDS011;4673;53.458;9.940;2022-11-21T08:38:58;12.23;;;12.20;;
9270;SDS011;4673;53.458;9.940;2022-11-21T08:41:24;12.50;;;12.40;;
9270;SDS011;4673;53.458;9.940;2022-11-21T08:44:09;13.67;;;13.57;;
9270;SDS011;4673;53.458;9.940;2022-11-21T08:46:35;12.67;;;12.60;;
9270;SDS011;4673;53.458;9.940;2022-11-21T08:49:03;11.70;;;11.63;;
9270;SDS011;4673;53.458;9.940;2022-11-21T08:51:32;11.50;;;11.47;;
9270;SDS011;4673;53.458;9.940;2022-11-21T08:53:59;11.50;;;11.50;;
9270;SDS011;4673;53.458;9.940;2022-11-21T08:56:25;11.70;;;11.70;;
9270;SDS011;4673;53.458;9.940;2022-11-21T08:58:51;11.80;;;11.80;;
9270;SDS011;4673;53.458;9.940;2022-11-21T09:01:17;11.93;;;11.93;;
9270;SDS011;4673;53.458;9.940;2022-11-21T09:03:42;11.97;;;11.97;;
9270;SDS011;4673;53.458;9.940;2022-11-21T09:06:08;12.13;;;12.13;;
9270;SDS011;4673;53.458;9.940;2022-11-21T09:08:33;11.93;;;11.87;;
9270;SDS011;4673;53.458;9.940;2022-11-21T09:11:06;11.53;;;11.53;;
9270;SDS011;4673;53.458;9.940;2022-11-21T09:13:33;11.93;;;11.93;;
9270;SDS011;4673;53.458;9.940;2022-11-21T09:15:59;12.13;;;12.03;;
9270;SDS011;4673;53.458;9.940;2022-11-21T09:18:44;12.00;;;11.90;;
9270;SDS011;4673;53.458;9.940;2022-11-21T09:21:13;13.53;;;13.43;;
9270;SDS011;4673;53.458;9.940;2022-11-21T09:23:40;12.63;;;12.53;;
9270;SDS011;4673;53.458;9.940;2022-11-21T09:26:06;12.63;;;12.53;;
9270;SDS011;4673;53.458;9.940;2022-11-21T09:28:32;13.17;;;13.07;;
9270;SDS011;4673;53.458;9.940;2022-11-21T09:31:00;14.23;;;14.13;;
9270;SDS011;4673;53.458;9.940;2022-11-21T09:33:27;13.10;;;13.00;;
9270;SDS011;4673;53.458;9.940;2022-11-21T09:35:52;12.70;;;12.60;;
9270;SDS011;4673;53.458;9.940;2022-11-21T09:38:18;13.20;;;13.10;;
9270;SDS011;4673;53.458;9.940;2022-11-21T09:40:45;12.33;;;12.23;;
9270;SDS011;4673;53.458;9.940;2022-11-21T09:43:18;12.97;;;12.87;;
9270;SDS011;4673;53.458;9.940;2022-11-21T09:45:58;13.43;;;13.33;;
9270;SDS011;4673;53.458;9.940;2022-11-21T09:48:34;13.33;;;13.23;;
9270;SDS011;4673;53.458;9.940;2022-11-21T09:51:09;11.70;;;11.70;;
9270;SDS011;4673;53.458;9.940;2022-11-21T09:56:22;11.77;;;11.77;;
9270;SDS011;4673;53.458;9.940;2022-11-21T10:01:45;11.50;;;11.47;;
9270;SDS011;4673;53.458;9.940;2022-11-21T10:04:11;11.90;;;11.80;;
9270;SDS011;4673;53.458;9.940;2022-11-21T10:12:33;11.53;;;11.53;;
9270;SDS011;4673;53.458;9.940;2022-11-21T10:17:55;12.33;;;12.23;;
9270;SDS011;4673;53.458;9.940;2022-11-21T10:28:54;12.57;;;12.53;;
9270;SDS011;4673;53.458;9.940;2022-11-21T10:31:30;11.17;;;11.17;;
9270;SDS011;4673;53.458;9.940;2022-11-21T10:34:02;11.97;;;11.90;;
9270;SDS011;4673;53.458;9.940;2022-11-21T10:36:38;10.07;;;10.07;;
9270;SDS011;4673;53.458;9.940;2022-11-21T10:42:27;11.90;;;11.80;;
9270;SDS011;4673;53.458;9.940;2022-11-21T10:45:15;12.50;;;12.40;;
9270;SDS011;4673;53.458;9.940;2022-11-21T10:47:41;12.07;;;11.97;;
9270;SDS011;4673;53.458;9.940;2022-11-21T10:52:34;12.63;;;12.53;;
9270;SDS011;4673;53.458;9.940;2022-11-21T10:55:10;13.53;;;13.43;;
9270;SDS011;4673;53.458;9.940;2022-11-21T11:00:13;12.00;;;11.90;;
9270;SDS011;4673;53.458;9.940;2022-11-21T11:02:57;11.37;;;11.27;;
9270;SDS011;4673;53.458;9.940;2022-11-21T11:05:40;13.60;;;13.50;;
9270;SDS011;4673;53.458;9.940;2022-11-21T11:08:19;11.77;;;11.77;;
9270;SDS011;4673;53.458;9.940;2022-11-21T11:10:59;13.40;;;13.30;;
9270;SDS011;4673;53.458;9.940;2022-11-21T11:13:27;12.10;;;12.00;;
9270;SDS011;4673;53.458;9.940;2022-11-21T11:16:01;13.20;;;13.10;;
9270;SDS011;4673;53.458;9.940;2022-11-21T11:18:28;11.40;;;11.30;;
9270;SDS011;4673;53.458;9.940;2022-11-21T11:21:08;12.00;;;12.00;;
9270;SDS011;4673;53.458;9.940;2022-11-21T11:23:44;10.47;;;10.47;;
9270;SDS011;4673;53.458;9.940;2022-11-21T11:26:19;11.73;;;11.73;;
9270;SDS011;4673;53.458;9.940;2022-11-21T11:28:52;11.93;;;11.83;;
9270;SDS011;4673;53.458;9.940;2022-11-21T11:48:34;10.10;;;10.10;;
9270;SDS011;4673;53.458;9.940;2022-11-21T11:51:05;8.97;;;8.97;;
9270;SDS011;4673;53.458;9.940;2022-11-21T11:53:45;8.87;;;8.87;;
9270;SDS011;4673;53.458;9.940;2022-11-21T11:56:23;8.30;;;8.30;;
9270;SDS011;4673;53.458;9.940;2022-11-21T11:59:01;10.07;;;10.07;;
9270;SDS011;4673;53.458;9.940;2022-11-21T12:04:17;8.47;;;8.47;;
9270;SDS011;4673;53.458;9.940;2022-11-21T12:14:48;7.73;;;7.73;;
9270;SDS011;4673;53.458;9.940;2022-11-21T12:17:50;8.30;;;8.30;;
9270;SDS011;4673;53.458;9.940;2022-11-21T12:26:35;7.53;;;7.53;;
9270;SDS011;4673;53.458;9.940;2022-11-21T12:45:53;7.27;;;7.27;;
9270;SDS011;4673;53.458;9.940;2022-11-21T12:48:38;7.60;;;7.60;;
9270;SDS011;4673;53.458;9.940;2022-11-21T12:51:36;8.37;;;8.37;;
9270;SDS011;4673;53.458;9.940;2022-11-21T12:57:16;8.40;;;8.40;;
9270;SDS011;4673;53.458;9.940;2022-11-21T13:04:55;9.53;;;9.53;;
9270;SDS011;4673;53.458;9.940;2022-11-21T13:07:23;8.53;;;8.53;;
9270;SDS011;4673;53.458;9.940;2022-11-21T13:09:53;7.73;;;7.73;;
9270;SDS011;4673;53.458;9.940;2022-11-21T13:12:25;8.27;;;8.27;;
9270;SDS011;4673;53.458;9.940;2022-11-21T13:14:54;8.47;;;8.47;;
9270;SDS011;4673;53.458;9.940;2022-11-21T13:17:52;9.07;;;9.07;;
9270;SDS011;4673;53.458;9.940;2022-11-21T13:23:50;9.73;;;9.73;;
9270;SDS011;4673;53.458;9.940;2022-11-21T13:26:01;9.03;;;9.03;;
9270;SDS011;4673;53.458;9.940;2022-11-21T13:28:47;9.17;;;9.17;;
9270;SDS011;4673;53.458;9.940;2022-11-21T13:31:26;8.77;;;8.77;;
9270;SDS011;4673;53.458;9.940;2022-11-21T13:33:53;10.83;;;10.83;;
9270;SDS011;4673;53.458;9.940;2022-11-21T14:17:32;8.90;;;8.90;;
9270;SDS011;4673;53.458;9.940;2022-11-21T14:19:59;8.23;;;8.23;;
9270;SDS011;4673;53.458;9.940;2022-11-21T14:22:35;8.20;;;8.20;;
9270;SDS011;4673;53.458;9.940;2022-11-21T14:25:06;8.60;;;8.60;;
9270;SDS011;4673;53.458;9.940;2022-11-21T14:27:38;9.00;;;9.00;;
9270;SDS011;4673;53.458;9.940;2022-11-21T14:30:05;8.07;;;8.07;;
9270;SDS011;4673;53.458;9.940;2022-11-21T14:32:50;8.90;;;8.90;;
9270;SDS011;4673;53.458;9.940;2022-11-21T14:35:20;7.80;;;7.80;;
9270;SDS011;4673;53.458;9.940;2022-11-21T14:37:47;8.20;;;8.20;;
9270;SDS011;4673;53.458;9.940;2022-11-21T14:40:23;7.37;;;7.37;;
9270;SDS011;4673;53.458;9.940;2022-11-21T14:42:49;7.73;;;7.73;;
9270;SDS011;4673;53.458;9.940;2022-11-21T14:45:19;7.40;;;7.40;;
9270;SDS011;4673;53.458;9.940;2022-11-21T14:47:50;7.80;;;7.80;;
9270;SDS011;4673;53.458;9.940;2022-11-21T14:50:24;7.50;;;7.50;;
9270;SDS011;4673;53.458;9.940;2022-11-21T14:52:54;7.70;;;7.70;;
9270;SDS011;4673;53.458;9.940;2022-11-21T14:55:27;7.00;;;7.00;;
9270;SDS011;4673;53.458;9.940;2022-11-21T14:57:55;8.00;;;8.00;;
9270;SDS011;4673;53.458;9.940;2022-11-21T15:00:24;7.13;;;7.13;;
9270;SDS011;4673;53.458;9.940;2022-11-21T15:02:52;6.70;;;6.70;;
9270;SDS011;4673;53.458;9.940;2022-11-21T15:05:20;7.17;;;7.17;;
9270;SDS011;4673;53.458;9.940;2022-11-21T15:07:47;7.00;;;7.00;;
9270;SDS011;4673;53.458;9.940;2022-11-21T15:10:17;6.70;;;6.70;;
9270;SDS011;4673;53.458;9.940;2022-11-21T15:18:00;6.70;;;6.70;;
9270;SDS011;4673;53.458;9.940;2022-11-21T15:20:28;6.80;;;6.80;;
9270;SDS011;4673;53.458;9.940;2022-11-21T15:22:54;7.00;;;7.00;;
9270;SDS011;4673;53.458;9.940;2022-11-21T15:25:25;7.87;;;7.87;;
9270;SDS011;4673;53.458;9.940;2022-11-21T15:30:28;7.53;;;7.53;;
9270;SDS011;4673;53.458;9.940;2022-11-21T15:32:59;6.90;;;6.90;;
9270;SDS011;4673;53.458;9.940;2022-11-21T15:35:26;8.17;;;8.17;;
9270;SDS011;4673;53.458;9.940;2022-11-21T15:37:53;8.50;;;8.50;;
9270;SDS011;4673;53.458;9.940;2022-11-21T15:40:20;7.67;;;7.67;;
9270;SDS011;4673;53.458;9.940;2022-11-21T15:42:45;6.90;;;6.90;;
9270;SDS011;4673;53.458;9.940;2022-11-21T15:47:40;6.63;;;6.63;;
9270;SDS011;4673;53.458;9.940;2022-11-21T15:50:06;6.70;;;6.70;;
9270;SDS011;4673;53.458;9.940;2022-11-21T15:52:45;6.70;;;6.70;;
9270;SDS011;4673;53.458;9.940;2022-11-21T15:55:15;7.07;;;7.07;;
9270;SDS011;4673;53.458;9.940;2022-11-21T15:57:47;6.27;;;6.27;;
9270;SDS011;4673;53.458;9.940;2022-11-21T16:00:13;6.93;;;6.93;;
9270;SDS011;4673;53.458;9.940;2022-11-21T16:02:39;6.93;;;6.93;;
9270;SDS011;4673;53.458;9.940;2022-11-21T16:05:05;6.93;;;6.93;;
9270;SDS011;4673;53.458;9.940;2022-11-21T16:07:35;7.57;;;7.57;;
9270;SDS011;4673;53.458;9.940;2022-11-21T16:10:00;7.80;;;7.80;;
9270;SDS011;4673;53.458;9.940;2022-11-21T16:12:26;6.63;;;6.63;;
9270;SDS011;4673;53.458;9.940;2022-11-21T16:14:51;6.00;;;6.00;;
9270;SDS011;4673;53.458;9.940;2022-11-21T16:17:17;6.87;;;6.87;;
9270;SDS011;4673;53.458;9.940;2022-11-21T16:19:44;7.50;;;7.50;;
9270;SDS011;4673;53.458;9.940;2022-11-21T16:22:09;8.43;;;8.43;;
9270;SDS011;4673;53.458;9.940;2022-11-21T16:24:35;19.77;;;19.57;;
9270;SDS011;4673;53.458;9.940;2022-11-21T16:27:01;27.43;;;27.13;;
9270;SDS011;4673;53.458;9.940;2022-11-21T16:29:26;28.03;;;27.73;;
9270;SDS011;4673;53.458;9.940;2022-11-21T16:31:52;14.17;;;14.07;;
9270;SDS011;4673;53.458;9.940;2022-11-21T16:34:20;10.27;;;10.27;;
9270;SDS011;4673;53.458;9.940;2022-11-21T16:36:46;8.67;;;8.67;;
9270;SDS011;4673;53.458;9.940;2022-11-21T16:39:12;9.07;;;9.07;;
9270;SDS011;4673;53.458;9.940;2022-11-21T16:41:38;8.67;;;8.67;;
9270;SDS011;4673;53.458;9.940;2022-11-21T16:44:05;8.23;;;8.23;;
9270;SDS011;4673;53.458;9.940;2022-11-21T16:46:39;8.93;;;8.93;;
9270;SDS011;4673;53.458;9.940;2022-11-21T16:49:07;8.77;;;8.77;;
9270;SDS011;4673;53.458;9.940;2022-11-21T16:51:33;9.17;;;9.17;;
9270;SDS011;4673;53.458;9.940;2022-11-21T16:53:59;8.63;;;8.63;;
9270;SDS011;4673;53.458;9.940;2022-11-21T16:56:24;9.13;;;9.13;;
9270;SDS011;4673;53.458;9.940;2022-11-21T16:58:51;9.60;;;9.50;;
9270;SDS011;4673;53.458;9.940;2022-11-21T17:01:17;9.60;;;9.60;;
9270;SDS011;4673;53.458;9.940;2022-11-21T17:03:45;9.67;;;9.67;;
9270;SDS011;4673;53.458;9.940;2022-11-21T17:06:13;9.40;;;9.40;;
9270;SDS011;4673;53.458;9.940;2022-11-21T17:08:40;8.70;;;8.70;;
9270;SDS011;4673;53.458;9.940;2022-11-21T17:11:39;10.67;;;10.67;;
9270;SDS011;4673;53.458;9.940;2022-11-21T17:13:59;10.07;;;10.07;;
9270;SDS011;4673;53.458;9.940;2022-11-21T17:16:26;11.10;;;11.00;;
9270;SDS011;4673;53.458;9.940;2022-11-21T17:18:54;11.77;;;11.77;;
9270;SDS011;4673;53.458;9.940;2022-11-21T17:21:20;12.13;;;12.03;;
9270;SDS011;4673;53.458;9.940;2022-11-21T17:23:46;10.93;;;10.93;;
9270;SDS011;4673;53.458;9.940;2022-11-21T17:26:13;10.57;;;10.57;;
9270;SDS011;4673;53.458;9.940;2022-11-21T17:28:40;9.47;;;9.47;;
9270;SDS011;4673;53.458;9.940;2022-11-21T17:31:07;11.20;;;11.10;;
9270;SDS011;4673;53.458;9.940;2022-11-21T17:33:37;11.40;;;11.30;;
9270;SDS011;4673;53.458;9.940;2022-11-21T17:36:04;11.90;;;11.80;;
9270;SDS011;4673;53.458;9.940;2022-11-21T17:38:31;12.03;;;11.93;;
9270;SDS011;4673;53.458;9.940;2022-11-21T17:41:00;13.47;;;13.37;;
9270;SDS011;4673;53.458;9.940;2022-11-21T17:43:27;12.40;;;12.30;;